Time;durP1;ratioP1;P1;durP2;ratioP2;P2;SDS_P1;SDS_P2;PMS_P1;PMS_P2;Temp;Humidity;BMP_temperature;BMP_pressure;BME280_temperature;BME280_humidity;BME280_pressure;Samples;Min_cycle;Max_cycle;Signal;HPM_P1;HPM_P2
2023/05/16 00:00:52;;;;;;;8.90;7.35;;;;;;;10.38;100.00;98157.22;4183966;28;20045;-72
2023/05/16 00:02:52;;;;;;;8.32;6.78;;;;;;;10.37;100.00;98163.16;4180340;28;20400;-73
2023/05/16 00:04:53;;;;;;;10.60;7.15;;;;;;;10.33;100.00;98154.03;4180582;28;20049;-72
2023/05/16 00:06:53;;;;;;;7.93;7.00;;;;;;;10.31;100.00;98161.91;4184043;28;20075;-72
2023/05/16 00:08:54;;;;;;;9.57;6.97;;;;;;;10.28;100.00;98171.00;4183783;28;20044;-72
2023/05/16 00:10:54;;;;;;;9.30;7.07;;;;;;;10.24;100.00;98172.91;4177097;28;20080;-72
2023/05/16 00:12:55;;;;;;;7.32;6.43;;;;;;;10.18;100.00;98164.19;4177503;28;20507;-73
2023/05/16 00:14:55;;;;;;;8.57;7.47;;;;;;;10.11;100.00;98164.91;4183258;28;20394;-73
2023/05/16 00:16:59;;;;;;;7.55;6.68;;;;;;;10.03;100.00;98163.25;4180651;28;20101;-73
2023/05/16 00:19:01;;;;;;;9.02;7.45;;;;;;;9.95;100.00;98158.84;4181647;28;20059;-72
2023/05/16 00:21:02;;;;;;;8.48;6.82;;;;;;;9.89;100.00;98160.34;4187097;28;20366;-72
2023/05/16 00:23:02;;;;;;;10.52;7.22;;;;;;;9.92;100.00;98164.31;4186759;28;20037;-72
2023/05/16 00:25:03;;;;;;;8.32;7.43;;;;;;;9.90;100.00;98161.94;4180719;28;20532;-72
2023/05/16 00:27:03;;;;;;;10.73;6.95;;;;;;;9.96;100.00;98163.19;4183408;28;20033;-72
2023/05/16 00:29:04;;;;;;;8.57;6.80;;;;;;;9.94;100.00;98167.53;4181404;28;20698;-72
2023/05/16 00:31:04;;;;;;;8.32;6.80;;;;;;;9.93;100.00;98161.19;4181571;28;20052;-72
2023/05/16 00:33:04;;;;;;;9.23;7.60;;;;;;;9.98;100.00;98160.84;4183285;28;20033;-72
2023/05/16 00:35:05;;;;;;;10.77;7.65;;;;;;;10.00;100.00;98163.22;4178756;28;20075;-73
2023/05/16 00:37:06;;;;;;;8.48;7.57;;;;;;;9.96;100.00;98168.72;4184145;28;20040;-72
2023/05/16 00:39:06;;;;;;;9.07;7.30;;;;;;;9.98;100.00;98163.59;4181392;28;20052;-72
2023/05/16 00:41:06;;;;;;;9.63;7.45;;;;;;;10.01;100.00;98165.63;4180549;28;20036;-72
2023/05/16 00:43:07;;;;;;;9.20;7.18;;;;;;;10.01;100.00;98162.84;4181372;28;20118;-72
2023/05/16 00:45:08;;;;;;;9.30;7.20;;;;;;;10.01;100.00;98160.09;4183465;28;20044;-72
2023/05/16 00:47:08;;;;;;;8.00;6.93;;;;;;;9.98;100.00;98155.31;4182767;28;20508;-72
2023/05/16 00:49:09;;;;;;;12.70;7.85;;;;;;;9.92;100.00;98159.59;4182351;28;20142;-72
2023/05/16 00:51:10;;;;;;;9.80;7.82;;;;;;;9.87;100.00;98171.00;4181968;28;20098;-72
2023/05/16 00:53:10;;;;;;;9.98;8.00;;;;;;;9.85;100.00;98171.41;4181257;28;20032;-72
2023/05/16 00:55:12;;;;;;;8.57;7.63;;;;;;;9.77;100.00;98169.75;4181867;28;20037;-72
2023/05/16 00:57:12;;;;;;;11.00;7.88;;;;;;;9.76;100.00;98175.63;4182115;28;20056;-72
2023/05/16 00:59:12;;;;;;;9.93;8.13;;;;;;;9.72;100.00;98170.06;4179772;28;20040;-72
2023/05/16 01:01:13;;;;;;;10.30;8.43;;;;;;;9.75;100.00;98171.28;4183788;28;20049;-72
2023/05/16 01:03:13;;;;;;;9.73;8.15;;;;;;;9.74;100.00;98172.44;4182566;28;20029;-72
2023/05/16 01:05:14;;;;;;;11.40;8.77;;;;;;;9.80;100.00;98171.72;4180763;28;20412;-72
2023/05/16 01:07:14;;;;;;;10.88;8.00;;;;;;;9.83;100.00;98172.94;4183058;28;20075;-72
2023/05/16 01:09:15;;;;;;;9.90;7.60;;;;;;;9.90;100.00;98172.22;4186360;28;20037;-72
2023/05/16 01:11:25;;;;;;;10.77;8.43;;;;;;;9.92;100.00;98172.63;4178500;28;20107;-72
2023/05/16 01:14:04;;;;;;;9.60;7.68;;;;;;;9.90;100.00;98174.97;4180119;28;20635;-72
2023/05/16 01:16:47;;;;;;;10.50;7.93;;;;;;;9.83;100.00;98183.97;4179969;28;20067;-72
2023/05/16 01:18:54;;;;;;;12.23;8.18;;;;;;;9.79;100.00;98183.97;4182794;28;20033;-72
2023/05/16 01:21:02;;;;;;;10.88;8.80;;;;;;;9.78;100.00;98187.09;4181791;28;20079;-72
2023/05/16 01:23:15;;;;;;;11.90;8.45;;;;;;;9.73;100.00;98181.91;4181132;28;20135;-72
2023/05/16 01:25:35;;;;;;;11.27;9.00;;;;;;;9.67;100.00;98178.69;4179621;28;20072;-72
2023/05/16 01:27:37;;;;;;;13.38;8.73;;;;;;;9.62;100.00;98184.56;4180735;28;20110;-72
2023/05/16 01:29:38;;;;;;;13.90;9.57;;;;;;;9.63;100.00;98193.66;4176740;28;20044;-72
2023/05/16 01:31:38;;;;;;;11.10;8.90;;;;;;;9.60;100.00;98178.63;4185184;28;20396;-72
2023/05/16 01:33:38;;;;;;;11.85;9.77;;;;;;;9.65;100.00;98189.34;4183038;28;20128;-72
2023/05/16 01:35:44;;;;;;;11.82;9.00;;;;;;;9.67;100.00;98194.47;4179376;28;20043;-72
2023/05/16 01:37:55;;;;;;;17.25;10.40;;;;;;;9.68;100.00;98188.59;4181888;28;20032;-72
2023/05/16 01:40:06;;;;;;;12.05;9.70;;;;;;;9.72;100.00;98192.16;4180245;28;20534;-72
2023/05/16 01:42:11;;;;;;;13.52;9.95;;;;;;;9.84;100.00;98194.66;4181382;28;20077;-72
2023/05/16 01:44:34;;;;;;;15.13;10.55;;;;;;;9.87;100.00;98201.41;4178512;28;20040;-72
2023/05/16 01:46:39;;;;;;;13.57;10.57;;;;;;;9.92;100.00;98195.50;4182821;28;20049;-72
2023/05/16 01:49:21;;;;;;;17.05;10.77;;;;;;;9.91;100.00;98195.91;4182641;28;20045;-72
2023/05/16 01:51:23;;;;;;;15.25;10.35;;;;;;;9.93;100.00;98199.06;4183631;28;20055;-72
2023/05/16 01:53:31;;;;;;;17.20;12.07;;;;;;;9.98;100.00;98196.75;4182836;28;20488;-72
2023/05/16 01:55:45;;;;;;;16.67;12.18;;;;;;;10.05;100.00;98196.84;4181922;28;20566;-72
2023/05/16 01:57:48;;;;;;;14.70;11.60;;;;;;;10.06;100.00;98211.44;4176431;28;20049;-72
2023/05/16 01:59:49;;;;;;;15.98;12.43;;;;;;;10.06;100.00;98205.91;4180627;28;20099;-72
2023/05/16 02:01:53;;;;;;;19.83;14.18;;;;;;;10.10;100.00;98212.28;4184505;28;20041;-72
2023/05/16 02:03:53;;;;;;;17.05;12.45;;;;;;;10.05;100.00;98215.38;4179233;28;20481;-72
2023/05/16 02:05:53;;;;;;;18.15;13.65;;;;;;;10.09;100.00;98225.31;4185490;28;20051;-72
2023/05/16 02:07:54;;;;;;;21.05;14.20;;;;;;;10.10;100.00;98223.34;4186642;28;20049;-72
2023/05/16 02:09:54;;;;;;;20.05;13.60;;;;;;;10.06;100.00;98223.28;4183947;28;20395;-72
2023/05/16 02:11:55;;;;;;;17.23;12.50;;;;;;;10.12;100.00;98220.97;4186639;28;20178;-72
2023/05/16 02:13:55;;;;;;;19.15;14.18;;;;;;;10.11;100.00;98227.69;4178865;28;20041;-72
2023/05/16 02:15:55;;;;;;;16.58;12.75;;;;;;;10.14;100.00;98224.94;4185697;28;20374;-72
2023/05/16 02:17:57;;;;;;;16.60;12.85;;;;;;;10.16;100.00;98232.84;4184350;28;20064;-72
2023/05/16 02:19:57;;;;;;;18.00;12.02;;;;;;;10.18;100.00;98235.22;4178855;28;20479;-72
2023/05/16 02:21:57;;;;;;;18.50;12.75;;;;;;;10.18;100.00;98230.53;4191962;28;20138;-72
2023/05/16 02:23:58;;;;;;;20.85;14.27;;;;;;;10.22;100.00;98230.53;4183325;28;20122;-73
2023/05/16 02:25:58;;;;;;;17.33;13.60;;;;;;;10.23;100.00;98234.94;4185029;28;20516;-72
2023/05/16 02:27:58;;;;;;;19.42;14.25;;;;;;;10.20;100.00;98235.66;4184550;28;20053;-72
2023/05/16 02:29:59;;;;;;;21.08;14.65;;;;;;;10.21;100.00;98234.50;4180816;28;20408;-72
2023/05/16 02:31:59;;;;;;;21.77;14.32;;;;;;;10.16;100.00;98238.38;4185401;28;20049;-72
2023/05/16 02:34:00;;;;;;;19.95;13.68;;;;;;;10.18;100.00;98233.28;4182690;28;20048;-72
2023/05/16 02:36:00;;;;;;;21.25;14.57;;;;;;;10.19;100.00;98239.63;4186813;28;20044;-72
2023/05/16 02:38:00;;;;;;;21.58;14.02;;;;;;;10.25;100.00;98243.63;4181524;28;20044;-72
2023/05/16 02:40:04;;;;;;;20.45;14.20;;;;;;;10.29;100.00;98241.69;4180927;28;20151;-73
2023/05/16 02:42:06;;;;;;;20.98;14.43;;;;;;;10.26;100.00;98248.78;4188410;28;20469;-72
2023/05/16 02:44:06;;;;;;;32.50;15.20;;;;;;;10.20;100.00;98241.19;4185933;28;20376;-73
2023/05/16 02:46:20;;;;;;;19.25;13.05;;;;;;;10.18;100.00;98236.06;4179572;28;20125;-73
2023/05/16 02:48:20;;;;;;;19.90;14.27;;;;;;;10.28;100.00;98243.66;4179445;28;20020;-72
2023/05/16 02:50:21;;;;;;;20.17;13.68;;;;;;;10.21;100.00;98240.81;4185984;28;20625;-72
2023/05/16 02:52:21;;;;;;;21.63;14.88;;;;;;;10.06;100.00;98242.63;4186712;28;20040;-72
2023/05/16 02:54:21;;;;;;;21.48;14.68;;;;;;;10.11;100.00;98242.31;4181633;28;20419;-73
2023/05/16 02:56:22;;;;;;;20.30;13.63;;;;;;;10.02;100.00;98246.56;4186863;28;20044;-72
2023/05/16 02:58:22;;;;;;;21.95;14.68;;;;;;;9.98;100.00;98245.72;4185080;28;20461;-72
2023/05/16 03:00:22;;;;;;;20.42;14.32;;;;;;;9.95;100.00;98249.25;4182667;28;20044;-73
2023/05/16 03:02:23;;;;;;;21.05;14.48;;;;;;;9.97;100.00;98244.91;4179661;28;20036;-72
2023/05/16 03:04:24;;;;;;;18.42;13.48;;;;;;;9.95;100.00;98244.50;4185433;28;20411;-72
2023/05/16 03:06:25;;;;;;;20.75;13.43;;;;;;;9.87;100.00;98237.31;4188866;28;20048;-72
2023/05/16 03:08:25;;;;;;;21.80;15.15;;;;;;;9.86;100.00;98241.25;4178442;28;20471;-73
2023/05/16 03:10:26;;;;;;;22.23;15.02;;;;;;;9.87;100.00;98248.38;4183745;28;20041;-72
2023/05/16 03:12:26;;;;;;;22.13;14.13;;;;;;;9.89;100.00;98246.03;4184500;28;20479;-72
2023/05/16 03:14:26;;;;;;;21.52;15.00;;;;;;;9.86;100.00;98241.25;4184106;28;20033;-72
2023/05/16 03:16:27;;;;;;;20.80;14.05;;;;;;;9.84;100.00;98249.91;4185909;28;20377;-72
2023/05/16 03:18:27;;;;;;;21.83;14.98;;;;;;;9.79;100.00;98253.03;4180136;28;20094;-72
2023/05/16 03:20:28;;;;;;;22.10;14.13;;;;;;;9.77;100.00;98254.59;4184190;28;20749;-72
2023/05/16 03:22:28;;;;;;;20.85;13.70;;;;;;;9.75;100.00;98243.88;4180235;28;20118;-72
2023/05/16 03:24:28;;;;;;;21.23;14.40;;;;;;;9.72;100.00;98252.16;4182000;28;20257;-72
2023/05/16 03:26:29;;;;;;;20.30;14.85;;;;;;;9.75;100.00;98254.94;4182063;28;20098;-72
2023/05/16 03:28:29;;;;;;;21.08;14.60;;;;;;;9.76;100.00;98261.25;4183489;28;20041;-72
2023/05/16 03:30:30;;;;;;;22.20;13.98;;;;;;;9.70;100.00;98265.56;4180655;28;20592;-72
2023/05/16 03:32:30;;;;;;;22.23;14.98;;;;;;;9.68;100.00;98265.13;4180847;28;20475;-72
2023/05/16 03:34:30;;;;;;;21.85;14.98;;;;;;;9.67;100.00;98267.09;4180933;28;20037;-72
2023/05/16 03:36:31;;;;;;;25.75;16.45;;;;;;;9.65;100.00;98274.16;4180498;28;20053;-72
2023/05/16 03:38:31;;;;;;;22.45;14.23;;;;;;;9.63;100.00;98271.00;4181341;28;20037;-72
2023/05/16 03:40:31;;;;;;;22.50;14.80;;;;;;;9.49;100.00;98274.38;4179459;28;20048;-72
2023/05/16 03:42:32;;;;;;;22.17;15.40;;;;;;;9.53;100.00;98269.69;4181381;28;20263;-72
2023/05/16 03:44:32;;;;;;;21.02;14.00;;;;;;;9.52;100.00;98279.16;4178972;28;20036;-72
2023/05/16 03:46:33;;;;;;;22.17;14.68;;;;;;;9.43;100.00;98270.34;4180944;28;20073;-72
2023/05/16 03:48:34;;;;;;;24.63;14.30;;;;;;;9.39;100.00;98269.50;4180679;28;20126;-72
2023/05/16 03:50:36;;;;;;;21.10;14.27;;;;;;;9.39;100.00;98278.59;4179725;28;20048;-72
2023/05/16 03:52:36;;;;;;;23.23;14.85;;;;;;;9.36;100.00;98289.59;4179516;28;20079;-72
2023/05/16 03:54:36;;;;;;;20.35;14.02;;;;;;;9.35;100.00;98285.22;4183412;28;20892;-72
2023/05/16 03:56:37;;;;;;;21.90;13.77;;;;;;;9.34;100.00;98291.91;4180468;28;20033;-72
2023/05/16 03:58:37;;;;;;;21.27;14.25;;;;;;;9.34;100.00;98297.44;4179973;28;20427;-72
2023/05/16 04:00:37;;;;;;;22.88;14.18;;;;;;;9.28;100.00;98286.75;4181625;28;20044;-72
2023/05/16 04:02:42;;;;;;;20.48;13.52;;;;;;;9.28;100.00;98297.00;4180542;28;20036;-72
2023/05/16 04:04:42;;;;;;;21.00;13.43;;;;;;;9.17;100.00;98296.03;4182222;28;20070;-72
2023/05/16 04:06:43;;;;;;;19.73;13.15;;;;;;;9.14;100.00;98299.53;4178821;28;20045;-72
2023/05/16 04:08:43;;;;;;;21.15;13.55;;;;;;;9.08;100.00;98298.28;4182427;28;20079;-72
2023/05/16 04:10:44;;;;;;;20.45;12.52;;;;;;;9.03;100.00;98299.41;4179858;28;20045;-72
2023/05/16 04:12:44;;;;;;;23.08;14.02;;;;;;;9.00;100.00;98297.38;4179067;28;20160;-72
2023/05/16 04:14:44;;;;;;;18.20;11.95;;;;;;;8.97;100.00;98307.19;4181162;28;20055;-72
2023/05/16 04:16:45;;;;;;;17.92;12.05;;;;;;;9.04;100.00;98309.28;4179103;28;20045;-72
2023/05/16 04:18:45;;;;;;;22.48;12.80;;;;;;;9.05;100.00;98310.84;4177707;28;20179;-72
2023/05/16 04:20:46;;;;;;;18.48;12.48;;;;;;;9.06;100.00;98311.66;4180667;28;20045;-72
2023/05/16 04:22:47;;;;;;;20.10;12.40;;;;;;;9.10;100.00;98324.34;4181845;28;20047;-72
2023/05/16 04:24:47;;;;;;;19.42;12.48;;;;;;;8.91;100.00;98321.66;4181946;28;20063;-72
2023/05/16 04:26:48;;;;;;;18.70;12.13;;;;;;;9.01;100.00;98327.34;4178507;28;20227;-72
2023/05/16 04:28:48;;;;;;;19.25;12.60;;;;;;;8.99;100.00;98326.13;4181114;28;20492;-72
2023/05/16 04:30:49;;;;;;;19.77;12.05;;;;;;;8.99;100.00;98339.94;4177983;28;20048;-72
2023/05/16 04:32:49;;;;;;;18.05;11.70;;;;;;;8.91;100.00;98338.22;4180268;28;20044;-72
2023/05/16 04:34:52;;;;;;;20.88;12.63;;;;;;;8.95;100.00;98337.13;4181265;28;20059;-72
2023/05/16 04:36:53;;;;;;;18.70;11.98;;;;;;;9.04;100.00;98341.59;4183359;28;20248;-72
2023/05/16 04:38:53;;;;;;;19.05;12.02;;;;;;;9.11;100.00;98339.72;4182243;28;20060;-72
2023/05/16 04:40:53;;;;;;;18.67;12.20;;;;;;;9.04;100.00;98347.09;4175717;28;20074;-72
2023/05/16 04:42:54;;;;;;;21.38;12.23;;;;;;;9.03;100.00;98351.03;4181328;28;20041;-72
2023/05/16 04:44:55;;;;;;;18.45;12.25;;;;;;;8.87;100.00;98346.47;4178641;28;20040;-72
2023/05/16 04:46:55;;;;;;;19.27;12.15;;;;;;;8.92;100.00;98356.38;4178113;28;20407;-72
2023/05/16 04:48:55;;;;;;;19.73;12.75;;;;;;;8.95;100.00;98352.88;4187697;28;20060;-72
2023/05/16 04:50:56;;;;;;;20.95;12.93;;;;;;;8.90;100.00;98353.19;4181333;28;20041;-72
2023/05/16 04:52:56;;;;;;;19.77;12.98;;;;;;;9.01;100.00;98362.44;4183064;28;20053;-72
2023/05/16 04:54:59;;;;;;;20.08;11.57;;;;;;;9.09;100.00;98366.09;4177318;28;20051;-72
2023/05/16 04:57:00;;;;;;;18.42;10.68;;;;;;;9.30;100.00;98360.91;4183529;28;20045;-72
2023/05/16 04:59:00;;;;;;;26.80;13.27;;;;;;;9.26;100.00;98374.63;4181984;28;20316;-72
2023/05/16 05:01:00;;;;;;;18.58;11.43;;;;;;;9.33;100.00;98373.16;4180935;28;20045;-72
2023/05/16 05:03:01;;;;;;;19.00;12.07;;;;;;;9.34;100.00;98372.00;4182633;28;20195;-72
2023/05/16 05:05:01;;;;;;;17.33;11.32;;;;;;;9.30;100.00;98374.72;4181399;28;20048;-72
2023/05/16 05:07:01;;;;;;;16.67;10.32;;;;;;;9.29;100.00;98381.41;4078480;27;20052;-72
2023/05/16 05:09:02;;;;;;;17.20;10.90;;;;;;;9.37;100.00;98379.53;4182130;28;20032;-72
2023/05/16 05:11:02;;;;;;;16.15;10.32;;;;;;;9.44;100.00;98379.66;4182526;28;20083;-72
2023/05/16 05:13:02;;;;;;;15.30;11.00;;;;;;;9.42;100.00;98380.00;4180089;28;20080;-72
2023/05/16 05:15:05;;;;;;;20.08;10.70;;;;;;;9.30;100.00;98380.22;4180569;28;20040;-72
2023/05/16 05:17:05;;;;;;;14.98;9.63;;;;;;;9.34;100.00;98383.03;4183640;28;20044;-72
2023/05/16 05:19:06;;;;;;;12.43;8.75;;;;;;;9.40;100.00;98379.59;4175995;28;20091;-72
2023/05/16 05:21:06;;;;;;;14.70;9.82;;;;;;;9.34;100.00;98380.28;4181771;28;20033;-72
2023/05/16 05:23:06;;;;;;;13.30;8.60;;;;;;;9.28;100.00;98383.38;4183830;28;20049;-72
2023/05/16 05:25:07;;;;;;;14.98;9.52;;;;;;;9.32;100.00;98385.38;4179264;28;20469;-72
2023/05/16 05:27:07;;;;;;;14.00;9.57;;;;;;;9.27;100.00;98398.34;4178027;28;20080;-72
2023/05/16 05:29:08;;;;;;;15.20;9.10;;;;;;;9.32;100.00;98402.75;4179246;28;20260;-72
2023/05/16 05:31:08;;;;;;;13.10;8.82;;;;;;;9.38;100.00;98397.69;4183096;28;20061;-72
2023/05/16 05:33:10;;;;;;;14.90;9.18;;;;;;;9.46;100.00;98402.97;4181694;28;20345;-72
2023/05/16 05:35:10;;;;;;;14.88;9.18;;;;;;;9.37;100.00;98388.63;4179155;28;20116;-72
2023/05/16 05:37:11;;;;;;;13.85;9.63;;;;;;;9.38;100.00;98390.22;4185200;28;20132;-72
2023/05/16 05:39:11;;;;;;;12.27;9.00;;;;;;;9.33;100.00;98390.53;4187524;28;20049;-72
2023/05/16 05:41:12;;;;;;;13.50;9.35;;;;;;;9.39;100.00;98402.84;4181959;28;20487;-72
2023/05/16 05:43:12;;;;;;;15.95;10.10;;;;;;;9.27;100.00;98401.09;4182672;28;20480;-72
2023/05/16 05:45:14;;;;;;;12.93;9.07;;;;;;;9.22;100.00;98400.63;4185046;28;20044;-72
2023/05/16 05:47:15;;;;;;;16.35;9.43;;;;;;;9.27;100.00;98405.84;4186849;28;20131;-72
2023/05/16 05:49:16;;;;;;;13.57;8.77;;;;;;;9.14;100.00;98402.47;4184797;28;20037;-72
2023/05/16 05:51:16;;;;;;;14.35;9.55;;;;;;;9.09;100.00;98402.78;4184230;28;20053;-72
2023/05/16 05:53:16;;;;;;;14.45;8.77;;;;;;;9.17;100.00;98403.69;4184219;28;20076;-72
2023/05/16 05:55:17;;;;;;;15.35;8.32;;;;;;;9.14;100.00;98405.22;4181019;28;20155;-72
2023/05/16 05:57:17;;;;;;;13.63;8.48;;;;;;;9.04;100.00;98407.81;4182785;28;20049;-72
2023/05/16 05:59:18;;;;;;;15.63;9.88;;;;;;;9.12;100.00;98406.78;4186907;28;20477;-72
2023/05/16 06:01:20;;;;;;;14.65;9.13;;;;;;;9.18;100.00;98425.38;4183358;28;20051;-72
2023/05/16 06:03:20;;;;;;;14.48;9.32;;;;;;;9.19;100.00;98427.00;4185009;28;20130;-72
2023/05/16 06:05:20;;;;;;;13.75;9.05;;;;;;;9.05;100.00;98425.97;4185060;28;20151;-72
2023/05/16 06:07:21;;;;;;;13.77;9.13;;;;;;;9.06;100.00;98431.13;4185005;28;20032;-72
2023/05/16 06:09:21;;;;;;;18.73;9.35;;;;;;;8.96;100.00;98431.75;4185314;28;20474;-72
2023/05/16 06:11:22;;;;;;;19.50;10.43;;;;;;;8.99;100.00;98429.03;4186498;28;20068;-72
2023/05/16 06:13:22;;;;;;;14.73;9.18;;;;;;;9.00;100.00;98430.63;4186628;28;20058;-72
2023/05/16 06:15:23;;;;;;;16.58;10.00;;;;;;;9.07;100.00;98429.16;4183684;28;20041;-72
2023/05/16 06:17:24;;;;;;;19.88;10.32;;;;;;;9.07;100.00;98432.72;4184351;28;20037;-72
2023/05/16 06:19:24;;;;;;;13.85;8.75;;;;;;;8.89;100.00;98437.94;4185565;28;20044;-72
2023/05/16 06:21:25;;;;;;;16.08;9.05;;;;;;;8.94;100.00;98434.06;4183236;28;20103;-72
2023/05/16 06:23:25;;;;;;;13.25;8.07;;;;;;;8.91;100.00;98440.31;4185266;28;20094;-72
2023/05/16 06:25:25;;;;;;;10.85;7.07;;;;;;;8.94;100.00;98442.34;4185115;28;20548;-72
2023/05/16 06:27:26;;;;;;;12.00;6.88;;;;;;;8.98;100.00;98444.00;4187359;28;20040;-72
2023/05/16 06:29:26;;;;;;;10.02;6.60;;;;;;;8.99;100.00;98444.78;4184500;28;20039;-72
2023/05/16 06:31:26;;;;;;;11.90;7.50;;;;;;;8.92;100.00;98453.72;4179199;28;20045;-72
2023/05/16 06:33:27;;;;;;;14.25;8.30;;;;;;;8.76;100.00;98452.25;4186110;28;20045;-72
2023/05/16 06:35:27;;;;;;;16.00;9.70;;;;;;;8.79;100.00;98465.34;4187498;28;20455;-72
2023/05/16 06:37:27;;;;;;;12.52;8.02;;;;;;;8.87;100.00;98459.56;4185014;28;20484;-72
2023/05/16 06:39:28;;;;;;;12.73;7.50;;;;;;;8.83;100.00;98463.44;4184924;28;20045;-72
2023/05/16 06:41:28;;;;;;;11.65;7.63;;;;;;;8.84;100.00;98460.28;4183052;28;20130;-72
2023/05/16 06:43:28;;;;;;;13.15;8.13;;;;;;;8.80;100.00;98456.69;4184518;28;20040;-72
2023/05/16 06:45:29;;;;;;;13.27;7.68;;;;;;;8.97;100.00;98458.97;4184461;28;20095;-72
2023/05/16 06:47:29;;;;;;;14.02;7.78;;;;;;;9.05;100.00;98457.13;4184220;28;20174;-72
2023/05/16 06:49:29;;;;;;;12.32;7.22;;;;;;;9.12;100.00;98453.69;4178508;28;20041;-72
2023/05/16 06:51:30;;;;;;;14.43;6.82;;;;;;;9.20;100.00;98458.16;4183294;28;20516;-72
2023/05/16 06:53:30;;;;;;;11.27;6.22;;;;;;;9.22;100.00;98470.44;4185151;28;20047;-72
2023/05/16 06:55:31;;;;;;;11.02;6.70;;;;;;;9.37;100.00;98463.19;4181711;28;20268;-72
2023/05/16 06:57:31;;;;;;;10.65;6.57;;;;;;;9.35;100.00;98472.97;4186763;28;20507;-72
2023/05/16 06:59:31;;;;;;;7.63;5.35;;;;;;;9.44;100.00;98474.34;4185079;28;20037;-72
2023/05/16 07:01:32;;;;;;;12.00;6.18;;;;;;;9.53;100.00;98480.41;4181225;28;20068;-72
2023/05/16 07:03:32;;;;;;;7.85;5.63;;;;;;;9.37;100.00;98487.22;4185254;28;20044;-72
2023/05/16 07:05:32;;;;;;;9.30;5.20;;;;;;;9.29;100.00;98480.78;4185858;28;20111;-72
2023/05/16 07:07:34;;;;;;;7.50;5.20;;;;;;;9.39;100.00;98482.13;4181558;28;20079;-72
2023/05/16 07:09:34;;;;;;;9.83;5.17;;;;;;;9.47;100.00;98476.34;4181980;28;20044;-72
2023/05/16 07:11:35;;;;;;;9.23;5.35;;;;;;;9.54;100.00;98479.22;4184365;28;20630;-72
2023/05/16 07:13:35;;;;;;;10.02;5.40;;;;;;;9.63;100.00;98483.69;4182055;28;20040;-72
2023/05/16 07:15:35;;;;;;;9.23;5.25;;;;;;;9.72;100.00;98486.97;4180775;28;20150;-72
2023/05/16 07:17:36;;;;;;;6.93;4.78;;;;;;;9.84;100.00;98486.75;4185650;28;20044;-72
2023/05/16 07:19:36;;;;;;;6.10;4.30;;;;;;;9.80;100.00;98491.44;4184777;28;20038;-72
2023/05/16 07:21:37;;;;;;;6.03;4.30;;;;;;;9.84;100.00;98484.00;4181239;28;20048;-72
2023/05/16 07:23:37;;;;;;;8.73;4.72;;;;;;;9.72;100.00;98486.97;4183425;28;20051;-72
2023/05/16 07:25:38;;;;;;;5.85;4.20;;;;;;;9.66;100.00;98494.78;4184897;28;20058;-72
2023/05/16 07:27:43;;;;;;;9.13;4.82;;;;;;;9.62;100.00;98491.19;4182641;28;20279;-72
2023/05/16 07:29:44;;;;;;;6.78;4.55;;;;;;;9.53;100.00;98493.41;4183797;28;20102;-72
2023/05/16 07:31:44;;;;;;;7.28;4.32;;;;;;;9.50;100.00;98492.16;4182908;28;20522;-72
2023/05/16 07:33:45;;;;;;;6.55;3.92;;;;;;;9.52;100.00;98497.34;4185013;28;20077;-72
2023/05/16 07:35:46;;;;;;;7.72;4.28;;;;;;;9.51;100.00;98502.03;4180738;28;20120;-72
2023/05/16 07:37:46;;;;;;;7.53;4.82;;;;;;;9.48;100.00;98502.78;4184473;28;20119;-72
2023/05/16 07:39:46;;;;;;;13.85;7.57;;;;;;;9.31;100.00;98508.81;4184782;28;20059;-72
2023/05/16 07:41:47;;;;;;;6.18;4.45;;;;;;;9.46;100.00;98510.66;4182641;28;20039;-72
2023/05/16 07:43:47;;;;;;;6.90;4.50;;;;;;;9.37;100.00;98512.09;4183600;28;20750;-72
2023/05/16 07:45:48;;;;;;;5.38;4.25;;;;;;;9.44;100.00;98504.72;4183267;28;20037;-72
2023/05/16 07:47:48;;;;;;;4.82;3.70;;;;;;;9.37;100.00;98507.34;4186771;28;20392;-72
2023/05/16 07:49:48;;;;;;;7.43;3.22;;;;;;;9.46;100.00;98509.88;4179021;28;20351;-72
2023/05/16 07:51:49;;;;;;;5.15;3.60;;;;;;;9.53;100.00;98510.78;4184757;28;20045;-72
2023/05/16 07:53:49;;;;;;;5.22;3.20;;;;;;;9.56;100.00;98512.78;4184750;28;20132;-72
2023/05/16 07:55:49;;;;;;;4.15;2.78;;;;;;;9.65;100.00;98520.03;4178457;28;20141;-72
2023/05/16 07:57:50;;;;;;;3.42;2.70;;;;;;;9.59;100.00;98516.75;4182530;28;20489;-72
2023/05/16 07:59:51;;;;;;;3.88;3.08;;;;;;;9.52;100.00;98520.25;4183202;28;20049;-72
2023/05/16 08:01:51;;;;;;;5.00;3.15;;;;;;;9.45;100.00;98517.34;4182579;28;20041;-72
2023/05/16 08:03:52;;;;;;;3.45;2.47;;;;;;;9.45;100.00;98522.09;4182421;28;20426;-72
2023/05/16 08:05:52;;;;;;;3.55;2.75;;;;;;;9.42;100.00;98528.31;4184545;28;20462;-72
2023/05/16 08:07:53;;;;;;;3.33;2.50;;;;;;;9.48;100.00;98527.66;4185525;28;20099;-72
2023/05/16 08:09:53;;;;;;;4.57;3.05;;;;;;;9.54;100.00;98531.72;4177443;28;20076;-72
2023/05/16 08:11:53;;;;;;;6.53;4.45;;;;;;;9.60;100.00;98514.81;4184702;28;20063;-72
2023/05/16 08:13:53;;;;;;;5.85;4.47;;;;;;;9.63;100.00;98522.38;4182435;28;20466;-72
2023/05/16 08:15:54;;;;;;;3.15;2.35;;;;;;;9.61;100.00;98516.41;4185789;28;20044;-72
2023/05/16 08:17:57;;;;;;;2.92;2.20;;;;;;;9.66;100.00;98533.47;4180924;28;20029;-72
2023/05/16 08:20:00;;;;;;;2.65;2.33;;;;;;;9.66;100.00;98533.47;4182711;28;20370;-72
2023/05/16 08:22:01;;;;;;;4.75;2.80;;;;;;;9.66;100.00;98527.94;4185650;28;20115;-72
2023/05/16 08:24:04;;;;;;;4.65;2.47;;;;;;;9.66;100.00;98527.94;4181518;28;20048;-72
2023/05/16 08:26:04;;;;;;;;;;;;;;;9.57;100.00;98527.41;4182954;28;20039;-72
2023/05/16 08:28:04;;;;;;;6.07;2.15;;;;;;;9.72;100.00;98522.91;4181212;28;19940;-72
2023/05/16 08:30:05;;;;;;;3.55;2.40;;;;;;;9.69;100.00;98524.44;4182375;28;20479;-72
2023/05/16 08:32:08;;;;;;;4.18;2.35;;;;;;;9.83;100.00;98521.09;4182532;28;20477;-72
2023/05/16 08:34:09;;;;;;;;;;;;;;;9.83;100.00;98518.31;4183088;28;20027;-72
2023/05/16 08:36:09;;;;;;;2.08;1.65;;;;;;;10.01;100.00;98513.06;4184248;28;20266;-72
2023/05/16 08:38:10;;;;;;;5.30;2.10;;;;;;;10.11;100.00;98529.00;4184830;28;20049;-72
2023/05/16 08:40:13;;;;;;;2.40;1.70;;;;;;;9.91;100.00;98522.78;4182047;28;20522;-72
2023/05/16 08:42:13;;;;;;;4.75;2.30;;;;;;;9.89;100.00;98522.38;4179854;28;20372;-72
2023/05/16 08:44:20;;;;;;;6.25;2.10;;;;;;;9.82;100.00;98530.56;4180005;28;20111;-72
2023/05/16 08:46:22;;;;;;;3.70;2.30;;;;;;;9.84;100.00;98534.53;4185989;28;20032;-72
2023/05/16 08:48:23;;;;;;;3.35;1.95;;;;;;;9.91;100.00;98519.22;4183022;28;20041;-72
2023/05/16 08:50:24;;;;;;;4.22;2.30;;;;;;;10.01;100.00;98519.41;4179771;28;20067;-72
2023/05/16 08:52:30;;;;;;;2.80;2.17;;;;;;;9.97;100.00;98526.03;4183094;28;20542;-72
2023/05/16 08:54:31;;;;;;;2.42;1.90;;;;;;;9.94;100.00;98524.81;4183348;28;20037;-72
2023/05/16 08:56:33;;;;;;;2.80;2.03;;;;;;;10.06;100.00;98513.53;4180869;28;20484;-72
2023/05/16 08:58:34;;;;;;;4.68;2.33;;;;;;;10.02;100.00;98509.94;4182070;28;20033;-72
2023/05/16 09:00:35;;;;;;;9.15;3.90;;;;;;;10.27;100.00;98501.22;4181975;28;20473;-72
2023/05/16 09:02:35;;;;;;;3.70;2.53;;;;;;;10.60;100.00;98512.31;4181688;28;20064;-72
2023/05/16 09:04:36;;;;;;;3.55;2.75;;;;;;;10.52;100.00;98513.38;4186357;28;20175;-72
2023/05/16 09:06:36;;;;;;;3.45;2.25;;;;;;;10.52;100.00;98515.34;4182025;28;20160;-72
2023/05/16 09:08:37;;;;;;;2.58;1.90;;;;;;;10.29;100.00;98519.03;4182594;28;20045;-72
2023/05/16 09:10:37;;;;;;;3.83;2.10;;;;;;;10.13;100.00;98523.91;4180022;28;20036;-72
2023/05/16 09:12:39;;;;;;;1.92;1.63;;;;;;;10.13;100.00;98523.91;4181963;28;20048;-72
2023/05/16 09:14:41;;;;;;;2.00;1.80;;;;;;;10.23;100.00;98539.06;4181716;28;20028;-72
2023/05/16 09:16:41;;;;;;;1.80;1.48;;;;;;;10.12;100.00;98541.66;4180581;28;20425;-72
2023/05/16 09:18:44;;;;;;;3.67;1.60;;;;;;;9.87;100.00;98535.78;4181844;28;20048;-72
2023/05/16 09:20:48;;;;;;;;;;;;;;;9.85;100.00;98543.66;4182430;28;20036;-72
2023/05/16 09:22:56;;;;;;;1.80;1.40;;;;;;;9.73;100.00;98554.88;4181489;28;19943;-72
2023/05/16 09:24:58;;;;;;;2.20;1.70;;;;;;;9.72;100.00;98553.28;4178846;28;20045;-72